sensor_id;sensor_type;location;lat;lon;timestamp;pressure;altitude;pressure_sealevel;temperature;humidity
59289;BME280;45056;47.602;9.886;2022-09-09T00:00:48;92803.75;;;16.97;62.96
59289;BME280;45056;47.602;9.886;2022-09-09T00:03:26;92800.72;;;16.95;62.91
59289;BME280;45056;47.602;9.886;2022-09-09T00:06:06;92804.97;;;16.96;63.07
59289;BME280;45056;47.602;9.886;2022-09-09T00:08:50;92808.47;;;16.96;63.27
59289;BME280;45056;47.602;9.886;2022-09-09T00:11:32;92804.97;;;16.96;63.19
59289;BME280;45056;47.602;9.886;2022-09-09T00:14:16;92804.72;;;16.94;63.29
59289;BME280;45056;47.602;9.886;2022-09-09T00:16:56;92801.72;;;16.92;63.43
59289;BME280;45056;47.602;9.886;2022-09-09T00:19:36;92798.69;;;16.90;63.54
59289;BME280;45056;47.602;9.886;2022-09-09T00:22:20;92799.16;;;16.88;63.56
59289;BME280;45056;47.602;9.886;2022-09-09T00:24:54;92795.69;;;16.87;63.52
59289;BME280;45056;47.602;9.886;2022-09-09T00:27:31;92794.16;;;16.86;63.56
59289;BME280;45056;47.602;9.886;2022-09-09T00:30:16;92791.44;;;16.86;63.50
59289;BME280;45056;47.602;9.886;2022-09-09T00:32:52;92788.69;;;16.86;63.56
59289;BME280;45056;47.602;9.886;2022-09-09T00:35:29;92791.44;;;16.86;63.71
59289;BME280;45056;47.602;9.886;2022-09-09T00:38:05;92789.41;;;16.87;63.46
59289;BME280;45056;47.602;9.886;2022-09-09T00:40:49;92785.63;;;16.84;63.60
59289;BME280;45056;47.602;9.886;2022-09-09T00:43:27;92786.59;;;16.81;63.60
59289;BME280;45056;47.602;9.886;2022-09-09T00:46:19;92785.09;;;16.80;63.79
59289;BME280;45056;47.602;9.886;2022-09-09T00:49:08;92780.38;;;16.81;63.75
59289;BME280;45056;47.602;9.886;2022-09-09T00:51:56;92772.88;;;16.81;63.76
59289;BME280;45056;47.602;9.886;2022-09-09T00:54:40;92775.34;;;16.79;64.05
59289;BME280;45056;47.602;9.886;2022-09-09T00:57:28;92777.09;;;16.77;64.14
59289;BME280;45056;47.602;9.886;2022-09-09T01:00:21;92776.31;;;16.76;64.03
59289;BME280;45056;47.602;9.886;2022-09-09T01:03:10;92782.09;;;16.78;64.07
59289;BME280;45056;47.602;9.886;2022-09-09T01:06:00;92784.09;;;16.78;63.91
59289;BME280;45056;47.602;9.886;2022-09-09T01:08:47;92780.59;;;16.77;63.93
59289;BME280;45056;47.602;9.886;2022-09-09T01:11:33;92780.59;;;16.77;63.87
59289;BME280;45056;47.602;9.886;2022-09-09T01:14:29;92779.59;;;16.80;63.89
59289;BME280;45056;47.602;9.886;2022-09-09T01:17:13;92782.16;;;16.84;63.85
59289;BME280;45056;47.602;9.886;2022-09-09T01:19:55;92774.94;;;16.86;63.94
59289;BME280;45056;47.602;9.886;2022-09-09T01:22:36;92778.69;;;16.89;63.99
59289;BME280;45056;47.602;9.886;2022-09-09T01:26:02;92774.22;;;16.92;64.01
59289;BME280;45056;47.602;9.886;2022-09-09T01:28:40;92765.47;;;16.93;63.93
59289;BME280;45056;47.602;9.886;2022-09-09T01:31:19;92772.47;;;16.94;63.61
59289;BME280;45056;47.602;9.886;2022-09-09T01:33:50;92765.97;;;16.92;63.65
59289;BME280;45056;47.602;9.886;2022-09-09T01:36:26;92758.97;;;16.91;63.65
59289;BME280;45056;47.602;9.886;2022-09-09T01:39:01;92756.72;;;16.89;63.65
59289;BME280;45056;47.602;9.886;2022-09-09T01:41:31;92757.22;;;16.87;63.66
59289;BME280;45056;47.602;9.886;2022-09-09T01:44:00;92752.97;;;16.86;64.01
59289;BME280;45056;47.602;9.886;2022-09-09T01:46:29;92750.22;;;16.86;64.24
59289;BME280;45056;47.602;9.886;2022-09-09T01:49:00;92752.66;;;16.84;64.03
59289;BME280;45056;47.602;9.886;2022-09-09T01:51:31;92751.94;;;16.84;64.01
59289;BME280;45056;47.602;9.886;2022-09-09T01:53:59;92759.91;;;16.82;64.03
59289;BME280;45056;47.602;9.886;2022-09-09T01:56:40;92756.88;;;16.80;63.88
59289;BME280;45056;47.602;9.886;2022-09-09T01:59:29;92752.63;;;16.79;64.07
59289;BME280;45056;47.602;9.886;2022-09-09T02:02:12;92758.13;;;16.79;63.98
59289;BME280;45056;47.602;9.886;2022-09-09T02:04:48;92757.88;;;16.77;63.87
59289;BME280;45056;47.602;9.886;2022-09-09T02:07:33;92754.84;;;16.75;64.12
59289;BME280;45056;47.602;9.886;2022-09-09T02:10:10;92749.34;;;16.75;63.77
59289;BME280;45056;47.602;9.886;2022-09-09T02:12:49;92750.09;;;16.75;63.44
59289;BME280;45056;47.602;9.886;2022-09-09T02:15:28;92752.38;;;16.77;63.30
59289;BME280;45056;47.602;9.886;2022-09-09T02:18:04;92755.38;;;16.79;63.38
59289;BME280;45056;47.602;9.886;2022-09-09T02:20:44;92749.13;;;16.78;63.28
59289;BME280;45056;47.602;9.886;2022-09-09T02:23:15;92757.63;;;16.80;63.23
59289;BME280;45056;47.602;9.886;2022-09-09T02:25:45;92749.66;;;16.82;62.91
59289;BME280;45056;47.602;9.886;2022-09-09T02:28:22;92762.16;;;16.83;62.95
59289;BME280;45056;47.602;9.886;2022-09-09T02:30:55;92753.44;;;16.85;62.93
59289;BME280;45056;47.602;9.886;2022-09-09T02:33:33;92752.97;;;16.86;62.67
59289;BME280;45056;47.602;9.886;2022-09-09T02:36:09;92754.47;;;16.87;62.17
59289;BME280;45056;47.602;9.886;2022-09-09T02:38:46;92752.44;;;16.88;62.18
59289;BME280;45056;47.602;9.886;2022-09-09T02:41:23;92747.72;;;16.88;62.51
59289;BME280;45056;47.602;9.886;2022-09-09T02:43:56;92755.97;;;16.88;62.44
59289;BME280;45056;47.602;9.886;2022-09-09T02:46:37;92751.72;;;16.87;62.44
59289;BME280;45056;47.602;9.886;2022-09-09T02:49:28;92752.41;;;16.82;62.27
59289;BME280;45056;47.602;9.886;2022-09-09T02:52:06;92757.38;;;16.78;62.41
59289;BME280;45056;47.602;9.886;2022-09-09T02:54:38;92766.59;;;16.75;62.52
59289;BME280;45056;47.602;9.886;2022-09-09T02:57:11;92770.31;;;16.72;62.71
59289;BME280;45056;47.602;9.886;2022-09-09T02:59:44;92767.03;;;16.68;62.76
59289;BME280;45056;47.602;9.886;2022-09-09T03:02:13;92768.00;;;16.65;62.87
59289;BME280;45056;47.602;9.886;2022-09-09T03:04:41;92759.69;;;16.59;62.99
59289;BME280;45056;47.602;9.886;2022-09-09T03:07:11;92761.16;;;16.54;62.94
59289;BME280;45056;47.602;9.886;2022-09-09T03:09:39;92764.59;;;16.49;63.00
59289;BME280;45056;47.602;9.886;2022-09-09T03:12:08;92757.31;;;16.46;63.08
59289;BME280;45056;47.602;9.886;2022-09-09T03:14:37;92758.28;;;16.43;63.22
59289;BME280;45056;47.602;9.886;2022-09-09T03:17:07;92751.28;;;16.42;63.56
59289;BME280;45056;47.602;9.886;2022-09-09T03:19:35;92753.56;;;16.43;63.34
59289;BME280;45056;47.602;9.886;2022-09-09T03:22:04;92755.53;;;16.43;63.45
59289;BME280;45056;47.602;9.886;2022-09-09T03:24:32;92764.56;;;16.43;63.68
59289;BME280;45056;47.602;9.886;2022-09-09T03:27:00;92762.28;;;16.42;63.56
59289;BME280;45056;47.602;9.886;2022-09-09T03:29:28;92763.03;;;16.42;63.51
59289;BME280;45056;47.602;9.886;2022-09-09T03:31:56;92759.78;;;16.44;63.68
59289;BME280;45056;47.602;9.886;2022-09-09T03:34:26;92768.31;;;16.46;63.20
59289;BME280;45056;47.602;9.886;2022-09-09T03:36:54;92765.81;;;16.48;63.21
59289;BME280;45056;47.602;9.886;2022-09-09T03:39:22;92770.84;;;16.50;63.16
59289;BME280;45056;47.602;9.886;2022-09-09T03:41:50;92765.63;;;16.52;63.25
59289;BME280;45056;47.602;9.886;2022-09-09T03:44:19;92769.41;;;16.54;63.31
59289;BME280;45056;47.602;9.886;2022-09-09T03:46:47;92767.41;;;16.55;62.51
59289;BME280;45056;47.602;9.886;2022-09-09T03:49:15;92772.94;;;16.61;62.35
59289;BME280;45056;47.602;9.886;2022-09-09T03:51:44;92781.72;;;16.65;61.83
59289;BME280;45056;47.602;9.886;2022-09-09T03:54:13;92775.25;;;16.68;61.69
59289;BME280;45056;47.602;9.886;2022-09-09T03:56:42;92775.78;;;16.72;61.23
59289;BME280;45056;47.602;9.886;2022-09-09T03:59:10;92772.84;;;16.76;60.78
59289;BME280;45056;47.602;9.886;2022-09-09T04:01:38;92774.13;;;16.80;60.44
59289;BME280;45056;47.602;9.886;2022-09-09T04:04:06;92777.38;;;16.84;59.83
59289;BME280;45056;47.602;9.886;2022-09-09T04:06:35;92780.97;;;16.91;59.54
59289;BME280;45056;47.602;9.886;2022-09-09T04:09:05;92782.75;;;16.94;59.17
59289;BME280;45056;47.602;9.886;2022-09-09T04:11:33;92777.78;;;16.98;58.88
59289;BME280;45056;47.602;9.886;2022-09-09T04:14:02;92784.31;;;17.00;59.22
59289;BME280;45056;47.602;9.886;2022-09-09T04:16:32;92791.59;;;17.04;59.16
59289;BME280;45056;47.602;9.886;2022-09-09T04:19:03;92782.84;;;17.05;59.14
59289;BME280;45056;47.602;9.886;2022-09-09T04:21:33;92789.09;;;17.06;59.21
59289;BME280;45056;47.602;9.886;2022-09-09T04:24:01;92787.09;;;17.06;59.49
59289;BME280;45056;47.602;9.886;2022-09-09T04:26:31;92792.59;;;17.06;59.77
59289;BME280;45056;47.602;9.886;2022-09-09T04:28:59;92792.59;;;17.06;60.08
59289;BME280;45056;47.602;9.886;2022-09-09T04:31:27;92799.34;;;17.05;60.24
59289;BME280;45056;47.602;9.886;2022-09-09T04:33:55;92800.84;;;17.06;60.60
59289;BME280;45056;47.602;9.886;2022-09-09T04:36:24;92799.34;;;17.05;60.93
59289;BME280;45056;47.602;9.886;2022-09-09T04:38:52;92798.34;;;17.02;60.79
59289;BME280;45056;47.602;9.886;2022-09-09T04:41:20;92792.56;;;17.00;61.01
59289;BME280;45056;47.602;9.886;2022-09-09T04:43:49;92803.28;;;16.98;60.99
59289;BME280;45056;47.602;9.886;2022-09-09T04:46:19;92808.22;;;16.94;60.73
59289;BME280;45056;47.602;9.886;2022-09-09T04:48:49;92798.69;;;16.90;60.96
59289;BME280;45056;47.602;9.886;2022-09-09T04:51:19;92791.13;;;16.84;61.39
59289;BME280;45056;47.602;9.886;2022-09-09T04:53:47;92791.38;;;16.81;61.54
59289;BME280;45056;47.602;9.886;2022-09-09T04:56:18;92799.34;;;16.79;61.59
59289;BME280;45056;47.602;9.886;2022-09-09T04:58:48;92805.81;;;16.76;61.75
59289;BME280;45056;47.602;9.886;2022-09-09T05:01:19;92803.53;;;16.74;61.85
59289;BME280;45056;47.602;9.886;2022-09-09T05:03:48;92805.03;;;16.75;61.94
59289;BME280;45056;47.602;9.886;2022-09-09T05:06:18;92809.03;;;16.74;61.80
59289;BME280;45056;47.602;9.886;2022-09-09T05:08:47;92803.78;;;16.76;61.98
59289;BME280;45056;47.602;9.886;2022-09-09T05:11:21;92821.06;;;16.77;61.71
59289;BME280;45056;47.602;9.886;2022-09-09T05:13:52;92812.81;;;16.77;61.76
59289;BME280;45056;47.602;9.886;2022-09-09T05:16:21;92817.53;;;16.76;61.79
59289;BME280;45056;47.602;9.886;2022-09-09T05:18:50;92825.31;;;16.78;61.66
59289;BME280;45056;47.602;9.886;2022-09-09T05:21:21;92827.56;;;16.79;61.63
59289;BME280;45056;47.602;9.886;2022-09-09T05:23:52;92834.09;;;16.82;61.51
59289;BME280;45056;47.602;9.886;2022-09-09T05:26:22;92831.34;;;16.82;61.41
59289;BME280;45056;47.602;9.886;2022-09-09T05:28:52;92832.56;;;16.81;61.35
59289;BME280;45056;47.602;9.886;2022-09-09T05:31:23;92830.56;;;16.81;61.48
59289;BME280;45056;47.602;9.886;2022-09-09T05:33:54;92836.06;;;16.81;61.60
59289;BME280;45056;47.602;9.886;2022-09-09T05:36:22;92834.81;;;16.82;61.66
59289;BME280;45056;47.602;9.886;2022-09-09T05:38:51;92841.81;;;16.83;61.65
59289;BME280;45056;47.602;9.886;2022-09-09T05:41:20;92839.06;;;16.83;61.48
59289;BME280;45056;47.602;9.886;2022-09-09T05:43:52;92841.81;;;16.83;61.58
59289;BME280;45056;47.602;9.886;2022-09-09T05:53:59;92844.56;;;16.83;61.72
59289;BME280;45056;47.602;9.886;2022-09-09T05:56:28;92850.06;;;16.83;61.46
59289;BME280;45056;47.602;9.886;2022-09-09T05:59:00;92841.34;;;16.85;61.76
59289;BME280;45056;47.602;9.886;2022-09-09T06:01:43;92849.13;;;16.86;61.52
59289;BME280;45056;47.602;9.886;2022-09-09T06:04:19;92848.63;;;16.88;61.54
59289;BME280;45056;47.602;9.886;2022-09-09T06:06:49;92844.16;;;16.91;61.68
59289;BME280;45056;47.602;9.886;2022-09-09T06:09:17;92851.16;;;16.92;61.64
59289;BME280;45056;47.602;9.886;2022-09-09T06:11:45;92845.94;;;16.94;61.80
59289;BME280;45056;47.602;9.886;2022-09-09T06:14:15;92843.94;;;16.94;61.72
59289;BME280;45056;47.602;9.886;2022-09-09T06:16:48;92843.94;;;16.94;62.08
59289;BME280;45056;47.602;9.886;2022-09-09T06:19:16;92850.19;;;16.95;62.17
59289;BME280;45056;47.602;9.886;2022-09-09T06:21:46;92845.44;;;16.95;61.99
59289;BME280;45056;47.602;9.886;2022-09-09T06:24:14;92845.44;;;16.95;61.87
59289;BME280;45056;47.602;9.886;2022-09-09T06:26:43;92842.69;;;16.95;62.07
59289;BME280;45056;47.602;9.886;2022-09-09T06:29:12;92843.47;;;16.96;61.93
59289;BME280;45056;47.602;9.886;2022-09-09T06:31:42;92839.00;;;16.98;62.15
59289;BME280;45056;47.602;9.886;2022-09-09T06:34:11;92846.78;;;17.00;62.10
59289;BME280;45056;47.602;9.886;2022-09-09T06:36:39;92831.31;;;17.02;62.08
59289;BME280;45056;47.602;9.886;2022-09-09T06:39:08;92838.59;;;17.06;62.17
59289;BME280;45056;47.602;9.886;2022-09-09T06:41:37;92849.34;;;17.09;62.01
59289;BME280;45056;47.602;9.886;2022-09-09T06:44:05;92835.88;;;17.11;62.01
59289;BME280;45056;47.602;9.886;2022-09-09T06:46:34;92842.41;;;17.14;62.09
59289;BME280;45056;47.602;9.886;2022-09-09T06:49:04;92842.19;;;17.18;61.81
59289;BME280;45056;47.602;9.886;2022-09-09T06:52:09;92842.44;;;17.20;61.98
59289;BME280;45056;47.602;9.886;2022-09-09T06:55:06;92846.22;;;17.22;62.00
59289;BME280;45056;47.602;9.886;2022-09-09T06:57:35;92848.75;;;17.26;61.91
59289;BME280;45056;47.602;9.886;2022-09-09T07:00:04;92847.78;;;17.29;61.88
59289;BME280;45056;47.602;9.886;2022-09-09T07:02:33;92846.03;;;17.31;61.78
59289;BME280;45056;47.602;9.886;2022-09-09T07:05:07;92847.06;;;17.34;61.35
59289;BME280;45056;47.602;9.886;2022-09-09T07:07:36;92843.06;;;17.35;61.55
59289;BME280;45056;47.602;9.886;2022-09-09T07:14:32;92846.59;;;17.41;61.44
59289;BME280;45056;47.602;9.886;2022-09-09T07:17:04;92855.13;;;17.43;61.45
59289;BME280;45056;47.602;9.886;2022-09-09T07:19:34;92850.88;;;17.42;61.26
59289;BME280;45056;47.602;9.886;2022-09-09T07:22:03;92853.63;;;17.42;61.12
59289;BME280;45056;47.602;9.886;2022-09-09T07:28:07;92866.84;;;17.38;60.68
59289;BME280;45056;47.602;9.886;2022-09-09T07:30:36;92860.31;;;17.36;60.91
59289;BME280;45056;47.602;9.886;2022-09-09T07:33:05;92868.31;;;17.34;61.31
59289;BME280;45056;47.602;9.886;2022-09-09T07:35:33;92871.53;;;17.32;61.36
59289;BME280;45056;47.602;9.886;2022-09-09T07:38:04;92879.03;;;17.31;61.42
59289;BME280;45056;47.602;9.886;2022-09-09T07:40:33;92877.03;;;17.32;61.59
59289;BME280;45056;47.602;9.886;2022-09-09T07:43:02;92879.53;;;17.30;61.63
59289;BME280;45056;47.602;9.886;2022-09-09T07:45:30;92879.72;;;17.26;61.50
59289;BME280;45056;47.602;9.886;2022-09-09T07:47:59;92885.72;;;17.25;61.74
59289;BME280;45056;47.602;9.886;2022-09-09T07:50:28;92879.47;;;17.24;62.28
59289;BME280;45056;47.602;9.886;2022-09-09T07:52:57;92885.94;;;17.21;62.71
59289;BME280;45056;47.602;9.886;2022-09-09T07:55:30;92893.19;;;17.19;62.72
59289;BME280;45056;47.602;9.886;2022-09-09T07:57:58;92890.44;;;17.19;63.00
59289;BME280;45056;47.602;9.886;2022-09-09T08:00:26;92884.94;;;17.19;63.24
59289;BME280;45056;47.602;9.886;2022-09-09T08:02:54;92883.69;;;17.20;63.51
59289;BME280;45056;47.602;9.886;2022-09-09T08:05:22;92884.16;;;17.18;63.89
59289;BME280;45056;47.602;9.886;2022-09-09T08:07:51;92890.44;;;17.19;63.89
59289;BME280;45056;47.602;9.886;2022-09-09T08:10:19;92882.91;;;17.19;63.91
59289;BME280;45056;47.602;9.886;2022-09-09T08:12:49;92884.94;;;17.19;63.92
59289;BME280;45056;47.602;9.886;2022-09-09T08:15:17;92887.19;;;17.20;64.16
59289;BME280;45056;47.602;9.886;2022-09-09T08:17:45;92894.94;;;17.22;64.20
59289;BME280;45056;47.602;9.886;2022-09-09T08:20:14;92896.47;;;17.23;64.06
59289;BME280;45056;47.602;9.886;2022-09-09T08:22:42;92894.44;;;17.23;64.03
59289;BME280;45056;47.602;9.886;2022-09-09T08:25:10;92890.97;;;17.23;63.85
59289;BME280;45056;47.602;9.886;2022-09-09T08:27:38;92894.94;;;17.22;63.70
59289;BME280;45056;47.602;9.886;2022-09-09T08:30:09;92894.94;;;17.22;63.74
59289;BME280;45056;47.602;9.886;2022-09-09T08:32:40;92894.19;;;17.21;63.83
59289;BME280;45056;47.602;9.886;2022-09-09T08:35:09;92893.72;;;17.23;63.92
59289;BME280;45056;47.602;9.886;2022-09-09T08:37:37;92900.97;;;17.26;63.65
59289;BME280;45056;47.602;9.886;2022-09-09T08:40:17;92904.00;;;17.28;63.84
59289;BME280;45056;47.602;9.886;2022-09-09T08:42:56;92892.22;;;17.27;63.24
59289;BME280;45056;47.602;9.886;2022-09-09T08:45:35;92899.25;;;17.28;63.43
59289;BME280;45056;47.602;9.886;2022-09-09T08:48:24;92900.00;;;17.29;63.34
59289;BME280;45056;47.602;9.886;2022-09-09T08:51:05;92905.25;;;17.27;63.32
59289;BME280;45056;47.602;9.886;2022-09-09T08:53:41;92897.00;;;17.27;63.16
59289;BME280;45056;47.602;9.886;2022-09-09T08:56:14;92897.00;;;17.27;63.10
59289;BME280;45056;47.602;9.886;2022-09-09T08:58:49;92901.72;;;17.26;63.32
59289;BME280;45056;47.602;9.886;2022-09-09T09:01:43;92896.72;;;17.25;63.25
59289;BME280;45056;47.602;9.886;2022-09-09T09:04:37;92898.94;;;17.21;63.30
59289;BME280;45056;47.602;9.886;2022-09-09T09:07:23;92900.66;;;17.18;63.51
59289;BME280;45056;47.602;9.886;2022-09-09T09:10:05;92915.63;;;17.17;63.61
59289;BME280;45056;47.602;9.886;2022-09-09T09:12:46;92912.16;;;17.16;63.56
59289;BME280;45056;47.602;9.886;2022-09-09T09:15:19;92912.41;;;17.19;63.98
59289;BME280;45056;47.602;9.886;2022-09-09T09:17:52;92916.41;;;17.18;64.09
59289;BME280;45056;47.602;9.886;2022-09-09T09:20:32;92915.63;;;17.17;64.38
59289;BME280;45056;47.602;9.886;2022-09-09T09:23:13;92913.38;;;17.15;64.60
59289;BME280;45056;47.602;9.886;2022-09-09T09:25:52;92915.09;;;17.13;64.47
59289;BME280;45056;47.602;9.886;2022-09-09T09:28:29;92908.84;;;17.12;64.56
59289;BME280;45056;47.602;9.886;2022-09-09T09:31:04;92911.59;;;17.12;64.96
59289;BME280;45056;47.602;9.886;2022-09-09T09:33:45;92915.84;;;17.13;65.17
59289;BME280;45056;47.602;9.886;2022-09-09T09:36:16;92914.59;;;17.14;65.15
59289;BME280;45056;47.602;9.886;2022-09-09T09:38:54;92911.84;;;17.14;65.12
59289;BME280;45056;47.602;9.886;2022-09-09T09:41:32;92918.13;;;17.15;64.95
59289;BME280;45056;47.602;9.886;2022-09-09T09:44:31;92915.56;;;17.11;64.77
59289;BME280;45056;47.602;9.886;2022-09-09T09:47:08;92907.34;;;17.11;64.59
59289;BME280;45056;47.602;9.886;2022-09-09T09:49:51;92909.81;;;17.09;64.61
59289;BME280;45056;47.602;9.886;2022-09-09T09:52:23;92914.84;;;17.11;64.89
59289;BME280;45056;47.602;9.886;2022-09-09T09:54:54;92905.81;;;17.10;64.87
59289;BME280;45056;47.602;9.886;2022-09-09T09:57:28;92910.31;;;17.08;65.26
59289;BME280;45056;47.602;9.886;2022-09-09T10:00:04;92902.53;;;17.06;65.59
59289;BME280;45056;47.602;9.886;2022-09-09T10:02:44;92908.53;;;17.05;66.20
59289;BME280;45056;47.602;9.886;2022-09-09T10:05:17;92917.25;;;17.03;66.14
59289;BME280;45056;47.602;9.886;2022-09-09T10:07:47;92915.28;;;17.04;65.89
59289;BME280;45056;47.602;9.886;2022-09-09T10:10:39;92915.75;;;17.02;66.30
59289;BME280;45056;47.602;9.886;2022-09-09T10:13:24;92913.25;;;17.04;66.38
59289;BME280;45056;47.602;9.886;2022-09-09T10:16:13;92913.81;;;17.08;66.51
59289;BME280;45056;47.602;9.886;2022-09-09T10:18:59;92918.31;;;17.11;66.47
59289;BME280;45056;47.602;9.886;2022-09-09T10:21:46;92915.09;;;17.13;66.05
59289;BME280;45056;47.602;9.886;2022-09-09T10:24:41;92912.09;;;17.11;65.98
59289;BME280;45056;47.602;9.886;2022-09-09T10:27:35;92904.84;;;17.13;65.53
59289;BME280;45056;47.602;9.886;2022-09-09T10:30:16;92899.09;;;17.11;65.43
59289;BME280;45056;47.602;9.886;2022-09-09T10:32:49;92904.59;;;17.11;65.64
59289;BME280;45056;47.602;9.886;2022-09-09T10:35:29;92890.84;;;17.11;65.42
59289;BME280;45056;47.602;9.886;2022-09-09T10:38:16;92891.88;;;17.14;65.45
59289;BME280;45056;47.602;9.886;2022-09-09T10:41:03;92890.16;;;17.16;65.58
59289;BME280;45056;47.602;9.886;2022-09-09T10:43:56;92884.66;;;17.16;65.50
59289;BME280;45056;47.602;9.886;2022-09-09T10:46:49;92878.66;;;17.18;65.32
59289;BME280;45056;47.602;9.886;2022-09-09T10:49:45;92888.41;;;17.19;65.04
59289;BME280;45056;47.602;9.886;2022-09-09T10:52:38;92890.69;;;17.21;64.24
59289;BME280;45056;47.602;9.886;2022-09-09T10:55:20;92894.25;;;17.27;64.07
59289;BME280;45056;47.602;9.886;2022-09-09T10:57:58;92887.06;;;17.35;64.33
59289;BME280;45056;47.602;9.886;2022-09-09T11:00:39;92885.63;;;17.45;64.02
59289;BME280;45056;47.602;9.886;2022-09-09T11:03:18;92874.22;;;17.53;63.87
59289;BME280;45056;47.602;9.886;2022-09-09T11:05:54;92886.75;;;17.59;63.35
59289;BME280;45056;47.602;9.886;2022-09-09T11:08:29;92878.75;;;17.62;63.63
59289;BME280;45056;47.602;9.886;2022-09-09T11:11:04;92875.06;;;17.65;63.36
59289;BME280;45056;47.602;9.886;2022-09-09T11:13:44;92870.59;;;17.73;63.33
59289;BME280;45056;47.602;9.886;2022-09-09T11:16:25;92867.66;;;17.82;62.79
59289;BME280;45056;47.602;9.886;2022-09-09T11:19:03;92870.19;;;17.86;62.52
59289;BME280;45056;47.602;9.886;2022-09-09T11:21:44;92871.72;;;17.93;62.51
59289;BME280;45056;47.602;9.886;2022-09-09T11:24:20;92861.81;;;18.01;61.58
59289;BME280;45056;47.602;9.886;2022-09-09T11:27:00;92864.63;;;18.18;61.65
59289;BME280;45056;47.602;9.886;2022-09-09T11:36:23;92872.53;;;18.54;59.16
59289;BME280;45056;47.602;9.886;2022-09-09T11:39:37;92870.78;;;18.45;59.12
59289;BME280;45056;47.602;9.886;2022-09-09T11:42:19;92867.22;;;18.39;59.56
59289;BME280;45056;47.602;9.886;2022-09-09T11:44:48;92869.72;;;18.37;59.46
59289;BME280;45056;47.602;9.886;2022-09-09T11:47:24;92874.50;;;18.36;59.29
59289;BME280;45056;47.602;9.886;2022-09-09T11:50:08;92871.22;;;18.38;59.42
59289;BME280;45056;47.602;9.886;2022-09-09T11:52:41;92866.00;;;18.45;59.56
59289;BME280;45056;47.602;9.886;2022-09-09T11:55:25;92874.81;;;18.55;58.86
59289;BME280;45056;47.602;9.886;2022-09-09T11:58:00;92880.84;;;18.59;58.38
59289;BME280;45056;47.602;9.886;2022-09-09T12:00:36;92880.09;;;18.59;58.18
59289;BME280;45056;47.602;9.886;2022-09-09T12:03:31;92881.81;;;18.56;58.38
59289;BME280;45056;47.602;9.886;2022-09-09T12:06:14;92889.56;;;18.52;58.71
59289;BME280;45056;47.602;9.886;2022-09-09T12:08:52;92892.56;;;18.49;58.99
59289;BME280;45056;47.602;9.886;2022-09-09T12:11:28;92897.56;;;18.44;59.11
59289;BME280;45056;47.602;9.886;2022-09-09T12:13:59;92909.56;;;18.41;59.33
59289;BME280;45056;47.602;9.886;2022-09-09T12:16:31;92914.28;;;18.35;60.18
59289;BME280;45056;47.602;9.886;2022-09-09T12:19:12;92901.22;;;18.24;61.00
59289;BME280;45056;47.602;9.886;2022-09-09T12:21:51;92899.91;;;18.14;61.87
59289;BME280;45056;47.602;9.886;2022-09-09T12:24:35;92881.06;;;18.07;61.73
59289;BME280;45056;47.602;9.886;2022-09-09T12:27:22;92891.28;;;18.00;62.43
59289;BME280;45056;47.602;9.886;2022-09-09T12:30:03;92887.75;;;17.94;62.29
59289;BME280;45056;47.602;9.886;2022-09-09T12:32:36;92886.72;;;17.92;62.44
59289;BME280;45056;47.602;9.886;2022-09-09T12:35:12;92888.22;;;17.87;62.54
59289;BME280;45056;47.602;9.886;2022-09-09T12:37:51;92885.19;;;17.85;62.93
59289;BME280;45056;47.602;9.886;2022-09-09T12:40:26;92878.44;;;17.86;63.38
59289;BME280;45056;47.602;9.886;2022-09-09T12:42:56;92873.47;;;17.90;63.05
59289;BME280;45056;47.602;9.886;2022-09-09T12:45:29;92874.25;;;17.96;62.72
59289;BME280;45056;47.602;9.886;2022-09-09T12:48:08;92872.09;;;18.06;63.09
59289;BME280;45056;47.602;9.886;2022-09-09T12:50:45;92868.63;;;18.17;62.81
59289;BME280;45056;47.602;9.886;2022-09-09T12:53:22;92858.19;;;18.33;62.48
59289;BME280;45056;47.602;9.886;2022-09-09T12:55:58;92858.75;;;18.48;61.96
59289;BME280;45056;47.602;9.886;2022-09-09T12:58:30;92861.28;;;18.57;61.64
59289;BME280;45056;47.602;9.886;2022-09-09T13:01:04;92864.81;;;18.64;60.66
59289;BME280;45056;47.602;9.886;2022-09-09T13:03:42;92866.31;;;18.65;60.35
59289;BME280;45056;47.602;9.886;2022-09-09T13:06:20;92862.31;;;18.66;60.97
59289;BME280;45056;47.602;9.886;2022-09-09T13:08:51;92864.81;;;18.64;61.22
59289;BME280;45056;47.602;9.886;2022-09-09T13:11:25;92863.06;;;18.60;61.74
59289;BME280;45056;47.602;9.886;2022-09-09T13:13:58;92861.28;;;18.57;61.63
59289;BME280;45056;47.602;9.886;2022-09-09T13:16:30;92855.53;;;18.55;61.63
59289;BME280;45056;47.602;9.886;2022-09-09T13:19:02;92846.78;;;18.57;62.01
59289;BME280;45056;47.602;9.886;2022-09-09T13:21:37;92846.28;;;18.58;61.93
59289;BME280;45056;47.602;9.886;2022-09-09T13:24:25;92845.78;;;18.60;60.98
59289;BME280;45056;47.602;9.886;2022-09-09T13:26:57;92837.53;;;18.71;61.21
59289;BME280;45056;47.602;9.886;2022-09-09T13:29:28;92834.06;;;18.94;60.40
59289;BME280;45056;47.602;9.886;2022-09-09T13:32:06;92831.38;;;19.11;58.90
59289;BME280;45056;47.602;9.886;2022-09-09T13:34:50;92833.38;;;19.16;58.35
59289;BME280;45056;47.602;9.886;2022-09-09T13:37:24;92836.13;;;19.16;58.65
59289;BME280;45056;47.602;9.886;2022-09-09T13:40:01;92830.13;;;19.23;59.63
59289;BME280;45056;47.602;9.886;2022-09-09T13:42:35;92838.41;;;19.40;58.95
59289;BME280;45056;47.602;9.886;2022-09-09T13:45:18;92830.38;;;19.59;57.56
59289;BME280;45056;47.602;9.886;2022-09-09T13:47:50;92827.34;;;19.74;57.59
59289;BME280;45056;47.602;9.886;2022-09-09T13:50:24;92818.06;;;19.83;56.21
59289;BME280;45056;47.602;9.886;2022-09-09T13:52:56;92815.28;;;19.83;55.79
59289;BME280;45056;47.602;9.886;2022-09-09T13:55:27;92818.31;;;19.80;55.81
59289;BME280;45056;47.602;9.886;2022-09-09T13:57:58;92822.56;;;19.75;55.95
59289;BME280;45056;47.602;9.886;2022-09-09T14:00:30;92820.56;;;19.81;56.06
59289;BME280;45056;47.602;9.886;2022-09-09T14:03:00;92814.00;;;19.90;55.37
59289;BME280;45056;47.602;9.886;2022-09-09T14:05:32;92811.03;;;19.99;55.23